createdAt,value
2019-02-17T00:02:00.012Z,15.00
2019-02-17T00:04:29.680Z,14.90
2019-02-17T00:06:59.339Z,14.90
2019-02-17T00:09:29.107Z,14.90
2019-02-17T00:11:58.832Z,14.90
2019-02-17T00:14:29.076Z,14.90
2019-02-17T00:16:59.367Z,14.90
2019-02-17T00:19:31.764Z,14.90
2019-02-17T00:22:02.899Z,14.80
2019-02-17T00:24:32.801Z,14.80
2019-02-17T00:27:04.087Z,14.80
2019-02-17T00:29:33.862Z,14.70
2019-02-17T00:32:03.552Z,14.60
2019-02-17T00:34:35.219Z,14.60
2019-02-17T00:37:05.208Z,14.60
2019-02-17T00:39:34.933Z,14.50
2019-02-17T00:42:04.657Z,14.50
2019-02-17T00:44:34.426Z,14.50
2019-02-17T00:47:05.468Z,14.40
2019-02-17T00:49:35.198Z,14.40
2019-02-17T00:52:04.890Z,14.30
2019-02-17T00:54:34.672Z,14.30
2019-02-17T00:57:04.349Z,14.20
2019-02-17T00:59:34.033Z,14.20
2019-02-17T01:02:03.793Z,14.20
2019-02-17T01:04:33.466Z,14.10
2019-02-17T01:07:03.149Z,14.10
2019-02-17T01:09:32.885Z,14.10
2019-02-17T01:12:02.615Z,14.10
2019-02-17T01:14:32.327Z,14.00
2019-02-17T01:17:03.240Z,14.00
2019-02-17T01:19:32.895Z,13.90
2019-02-17T01:22:02.565Z,13.90
2019-02-17T01:24:32.276Z,13.80
2019-02-17T01:27:04.137Z,13.80
2019-02-17T01:29:33.817Z,13.80
2019-02-17T01:32:03.576Z,13.80
2019-02-17T01:34:33.273Z,13.80
2019-02-17T01:37:03.093Z,13.80
2019-02-17T01:39:32.804Z,13.80
2019-02-17T01:42:04.140Z,13.80
2019-02-17T01:44:33.872Z,13.80
2019-02-17T01:47:05.074Z,13.80
2019-02-17T01:49:34.759Z,13.80
2019-02-17T01:52:04.498Z,13.80
2019-02-17T01:54:35.698Z,13.80
2019-02-17T01:57:05.445Z,13.90
2019-02-17T01:59:35.197Z,13.90
2019-02-17T02:02:06.540Z,14.00
2019-02-17T02:04:37.210Z,14.00
2019-02-17T02:07:06.953Z,14.10
2019-02-17T02:09:36.653Z,14.10
2019-02-17T02:12:06.898Z,14.10
2019-02-17T02:14:36.575Z,14.20
2019-02-17T02:17:09.859Z,14.20
2019-02-17T02:19:39.657Z,14.20
2019-02-17T02:22:09.341Z,14.10
2019-02-17T02:24:40.088Z,14.10
2019-02-17T02:27:09.778Z,14.10
2019-02-17T02:29:41.346Z,14.00
2019-02-17T02:32:10.857Z,14.00
2019-02-17T02:34:40.526Z,14.00
2019-02-17T02:37:10.194Z,14.00
2019-02-17T02:39:40.366Z,14.00
2019-02-17T02:42:10.382Z,14.00
2019-02-17T02:44:40.116Z,14.00
2019-02-17T02:47:09.813Z,14.00
2019-02-17T02:49:39.597Z,14.10
2019-02-17T02:52:09.274Z,14.10
2019-02-17T02:54:40.121Z,14.10
2019-02-17T02:57:09.792Z,14.10
2019-02-17T02:59:39.466Z,14.20
2019-02-17T03:02:09.240Z,14.20
2019-02-17T03:04:38.907Z,14.20
2019-02-17T03:07:08.932Z,14.20
2019-02-17T03:09:38.636Z,14.20
2019-02-17T03:12:08.432Z,14.20
2019-02-17T03:14:38.142Z,14.20
2019-02-17T03:17:07.946Z,14.10
2019-02-17T03:19:37.616Z,14.00
2019-02-17T03:22:07.292Z,14.00
2019-02-17T03:24:37.086Z,13.90
2019-02-17T03:27:27.482Z,13.90
2019-02-17T03:30:04.938Z,13.80
2019-02-17T03:32:47.873Z,13.00
2019-02-17T03:35:17.569Z,13.70
2019-02-17T03:37:47.338Z,13.70
2019-02-17T03:40:17.007Z,13.70
2019-02-17T03:42:46.699Z,13.80
2019-02-17T03:45:16.369Z,13.80
2019-02-17T03:47:46.030Z,13.80
2019-02-17T03:50:15.748Z,13.90
2019-02-17T03:52:45.411Z,13.90
2019-02-17T03:55:15.175Z,13.80
2019-02-17T03:57:44.953Z,13.80
2019-02-17T04:00:17.239Z,13.80
2019-02-17T04:02:46.105Z,13.70
2019-02-17T04:05:15.807Z,13.70
2019-02-17T04:07:45.485Z,13.60
2019-02-17T04:10:15.195Z,13.50
2019-02-17T04:12:46.574Z,13.40
2019-02-17T04:15:16.320Z,13.30
2019-02-17T04:17:45.993Z,13.20
2019-02-17T04:20:15.693Z,13.10
2019-02-17T04:22:45.783Z,13.00
2019-02-17T04:25:15.459Z,12.90
2019-02-17T04:27:45.141Z,12.80
2019-02-17T04:30:14.815Z,12.70
2019-02-17T04:32:44.493Z,12.70
2019-02-17T04:35:14.185Z,12.60
2019-02-17T04:37:43.872Z,12.50
2019-02-17T04:40:13.711Z,12.50
2019-02-17T04:42:44.021Z,12.40
2019-02-17T04:45:14.492Z,12.30
2019-02-17T04:47:44.192Z,12.30
2019-02-17T04:50:13.893Z,12.20
2019-02-17T04:52:43.554Z,12.20
2019-02-17T04:55:13.215Z,12.20
2019-02-17T04:57:43.347Z,12.10
2019-02-17T05:00:13.037Z,12.10
2019-02-17T05:02:42.711Z,12.00
2019-02-17T05:05:12.401Z,12.00
2019-02-17T05:08:01.352Z,11.90
2019-02-17T05:10:31.048Z,11.90
2019-02-17T05:13:00.711Z,11.80
2019-02-17T05:15:30.369Z,11.80
2019-02-17T05:18:00.065Z,11.80
2019-02-17T05:20:29.815Z,11.70
2019-02-17T05:22:59.499Z,11.70
2019-02-17T05:25:29.189Z,11.70
2019-02-17T05:27:58.863Z,11.60
2019-02-17T05:30:28.633Z,11.60
2019-02-17T05:32:58.321Z,11.60
2019-02-17T05:35:27.999Z,11.50
2019-02-17T05:37:57.651Z,11.50
2019-02-17T05:40:27.363Z,11.50
2019-02-17T05:42:57.028Z,11.40
2019-02-17T05:45:26.717Z,11.40
2019-02-17T05:47:56.695Z,11.40
2019-02-17T05:50:26.367Z,11.30
2019-02-17T05:52:56.099Z,11.30
2019-02-17T05:55:25.779Z,11.30
2019-02-17T05:57:55.537Z,11.30
2019-02-17T06:00:26.307Z,11.20
2019-02-17T06:02:56.063Z,11.20
2019-02-17T06:05:25.731Z,11.20
2019-02-17T06:08:14.764Z,11.20
2019-02-17T06:10:44.432Z,11.10
2019-02-17T06:13:15.509Z,11.10
2019-02-17T06:15:45.811Z,11.10
2019-02-17T06:18:36.105Z,11.00
2019-02-17T06:21:05.789Z,11.00
2019-02-17T06:23:37.085Z,11.00
2019-02-17T06:26:08.181Z,10.90
2019-02-17T06:28:39.332Z,10.90
2019-02-17T06:31:14.311Z,10.90
2019-02-17T06:33:41.543Z,10.90
2019-02-17T06:36:11.225Z,10.90
2019-02-17T06:38:40.893Z,10.80
2019-02-17T06:41:12.023Z,10.80
2019-02-17T06:43:41.719Z,10.80
2019-02-17T06:46:13.017Z,10.80
2019-02-17T06:48:42.678Z,10.70
2019-02-17T06:51:12.375Z,10.70
2019-02-17T06:53:42.038Z,10.70
2019-02-17T06:56:31.524Z,10.70
2019-02-17T06:59:01.192Z,10.60
2019-02-17T07:01:30.933Z,10.60
2019-02-17T07:04:01.021Z,10.60
2019-02-17T07:06:42.715Z,10.60
2019-02-17T07:09:12.431Z,10.50
2019-02-17T07:11:42.294Z,10.50
2019-02-17T07:14:12.443Z,10.50
2019-02-17T07:16:42.284Z,10.50
2019-02-17T07:19:12.059Z,10.50
2019-02-17T07:21:41.723Z,10.50
2019-02-17T07:24:11.407Z,10.50
2019-02-17T07:26:41.077Z,10.50
2019-02-17T07:29:10.752Z,10.50
2019-02-17T07:31:41.869Z,10.50
2019-02-17T07:34:11.534Z,10.50
2019-02-17T07:36:42.837Z,10.50
2019-02-17T07:39:12.534Z,10.50
2019-02-17T07:41:42.278Z,10.50
2019-02-17T07:44:11.939Z,10.50
2019-02-17T07:46:41.614Z,10.50
2019-02-17T07:49:12.484Z,10.50
2019-02-17T07:51:42.166Z,10.50
2019-02-17T07:54:12.915Z,10.60
2019-02-17T07:56:42.593Z,10.60
2019-02-17T07:59:13.758Z,10.60
2019-02-17T08:01:45.569Z,10.60
2019-02-17T08:04:17.664Z,10.70
2019-02-17T08:06:47.321Z,10.70
2019-02-17T08:09:17.011Z,10.80
2019-02-17T08:11:46.677Z,10.80
2019-02-17T08:14:17.985Z,10.80
2019-02-17T08:16:47.684Z,10.90
2019-02-17T08:19:17.438Z,10.90
2019-02-17T08:21:47.107Z,11.00
2019-02-17T08:24:16.881Z,11.10
2019-02-17T08:26:48.192Z,11.10
2019-02-17T08:29:17.859Z,11.20
2019-02-17T08:31:55.545Z,11.30
2019-02-17T08:34:18.965Z,11.40
2019-02-17T08:36:48.633Z,11.50
2019-02-17T08:39:18.315Z,11.60
2019-02-17T08:41:47.997Z,11.70
2019-02-17T08:44:17.684Z,11.80
2019-02-17T08:46:47.375Z,11.80
2019-02-17T08:49:17.027Z,11.90
2019-02-17T08:51:46.714Z,12.00
2019-02-17T08:54:16.351Z,12.10
2019-02-17T08:56:46.308Z,12.20
2019-02-17T08:59:16.054Z,12.30
2019-02-17T09:01:46.456Z,12.40
2019-02-17T09:04:16.114Z,12.50
2019-02-17T09:06:48.892Z,12.60
2019-02-17T09:09:18.584Z,12.70
2019-02-17T09:11:49.184Z,12.80
2019-02-17T09:14:20.341Z,12.90
2019-02-17T09:16:50.069Z,13.00
2019-02-17T09:19:19.794Z,13.10
2019-02-17T09:21:49.528Z,13.10
2019-02-17T09:24:19.259Z,13.20
2019-02-17T09:26:50.577Z,13.20
2019-02-17T09:29:20.357Z,13.30
2019-02-17T09:31:50.048Z,13.40
2019-02-17T09:34:19.733Z,13.40
2019-02-17T09:36:55.595Z,13.50
2019-02-17T09:39:25.286Z,13.60
2019-02-17T09:41:54.950Z,13.70
2019-02-17T09:44:24.660Z,13.80
2019-02-17T09:46:54.337Z,13.90
2019-02-17T09:49:24.814Z,14.00
2019-02-17T09:51:55.984Z,14.10
2019-02-17T09:54:25.705Z,14.20
2019-02-17T09:56:56.470Z,14.40
2019-02-17T09:59:26.167Z,14.50
2019-02-17T10:01:56.168Z,14.60
2019-02-17T10:04:26.076Z,14.70
2019-02-17T10:06:55.828Z,14.80
2019-02-17T10:09:25.506Z,14.90
2019-02-17T10:11:55.270Z,15.10
2019-02-17T10:14:26.629Z,15.20
2019-02-17T10:16:56.300Z,15.30
2019-02-17T10:19:26.002Z,15.40
2019-02-17T10:21:55.722Z,15.50
2019-02-17T10:24:25.460Z,15.60
2019-02-17T10:26:55.181Z,15.70
2019-02-17T10:29:24.850Z,15.80
2019-02-17T10:31:54.528Z,15.90
2019-02-17T10:34:24.311Z,15.90
2019-02-17T10:36:54.026Z,16.00
2019-02-17T10:39:23.716Z,16.10
2019-02-17T10:41:53.399Z,16.10
2019-02-17T10:44:23.097Z,16.10
2019-02-17T10:46:54.282Z,16.20
2019-02-17T10:49:23.944Z,16.20
2019-02-17T10:51:55.165Z,16.20
2019-02-17T10:54:24.843Z,16.30
2019-02-17T10:56:54.518Z,16.30
2019-02-17T10:59:24.390Z,16.30
2019-02-17T11:01:54.342Z,16.30
2019-02-17T11:04:24.029Z,16.30
2019-02-17T11:06:53.722Z,16.30
2019-02-17T11:09:23.785Z,16.30
2019-02-17T11:11:53.485Z,16.30
2019-02-17T11:14:23.250Z,16.30
2019-02-17T11:16:53.023Z,16.40
2019-02-17T11:19:22.699Z,16.40
2019-02-17T11:21:52.537Z,16.50
2019-02-17T11:24:22.213Z,16.50
2019-02-17T11:26:51.956Z,16.50
2019-02-17T11:29:21.818Z,16.60
2019-02-17T11:31:51.504Z,16.60
2019-02-17T11:34:21.182Z,16.60
2019-02-17T11:36:50.887Z,16.70
2019-02-17T11:39:20.729Z,16.80
2019-02-17T11:41:50.428Z,16.80
2019-02-17T11:44:20.191Z,16.90
2019-02-17T11:46:49.968Z,17.00
2019-02-17T11:49:19.966Z,17.10
2019-02-17T11:51:53.936Z,17.20
2019-02-17T11:54:23.594Z,17.40
2019-02-17T11:56:53.606Z,17.50
2019-02-17T11:59:23.310Z,17.50
2019-02-17T12:01:59.916Z,16.60
2019-02-17T12:04:29.649Z,17.50
2019-02-17T12:07:04.457Z,17.50
2019-02-17T12:09:34.120Z,17.40
2019-02-17T12:12:03.833Z,17.30
2019-02-17T12:14:34.391Z,17.30
2019-02-17T12:17:03.944Z,17.30
2019-02-17T12:19:33.709Z,17.40
2019-02-17T12:22:09.647Z,17.40
2019-02-17T12:24:40.960Z,17.50
2019-02-17T12:27:12.364Z,17.50
2019-02-17T12:29:46.699Z,17.60
2019-02-17T12:32:19.646Z,17.60
2019-02-17T12:34:49.342Z,17.60
2019-02-17T12:37:19.117Z,17.70
2019-02-17T12:39:49.014Z,17.60
2019-02-17T12:42:18.800Z,17.60
2019-02-17T12:44:51.306Z,17.50
2019-02-17T12:47:20.984Z,17.50
2019-02-17T12:49:50.838Z,17.40
2019-02-17T12:52:21.725Z,17.40
2019-02-17T12:54:51.388Z,17.40
2019-02-17T12:57:21.055Z,17.40
2019-02-17T12:59:50.752Z,17.40
2019-02-17T13:02:22.296Z,17.40
2019-02-17T13:04:51.971Z,17.40
2019-02-17T13:07:21.683Z,17.40
2019-02-17T13:09:51.375Z,17.50
2019-02-17T13:12:21.303Z,17.60
2019-02-17T13:14:50.983Z,17.80
2019-02-17T13:17:20.677Z,17.90
2019-02-17T13:19:50.335Z,18.00
2019-02-17T13:22:20.101Z,18.10
2019-02-17T13:24:53.943Z,18.20
2019-02-17T13:27:23.612Z,18.30
2019-02-17T13:29:53.398Z,18.40
2019-02-17T13:32:23.142Z,18.40
2019-02-17T13:34:52.805Z,18.40
2019-02-17T13:37:22.556Z,18.40
2019-02-17T13:39:52.219Z,18.40
2019-02-17T13:42:25.103Z,18.40
2019-02-17T13:44:54.868Z,18.40
2019-02-17T13:47:24.555Z,18.50
2019-02-17T13:49:55.746Z,18.40
2019-02-17T13:52:25.451Z,18.40
2019-02-17T13:54:56.488Z,18.40
2019-02-17T13:57:33.649Z,18.40
2019-02-17T14:00:03.992Z,18.40
2019-02-17T14:02:33.688Z,18.40
2019-02-17T14:05:03.396Z,18.40
2019-02-17T14:07:33.137Z,18.40
2019-02-17T14:10:02.814Z,18.40
2019-02-17T14:12:32.503Z,18.40
2019-02-17T14:15:02.254Z,18.40
2019-02-17T14:17:32.025Z,18.30
2019-02-17T14:20:01.790Z,18.30
2019-02-17T14:22:31.448Z,18.30
2019-02-17T14:25:01.184Z,18.20
2019-02-17T14:27:30.934Z,18.10
2019-02-17T14:30:00.666Z,18.10
2019-02-17T14:32:30.405Z,18.10
2019-02-17T14:35:01.892Z,18.10
2019-02-17T14:37:31.580Z,18.10
2019-02-17T14:40:01.242Z,18.00
2019-02-17T14:42:35.203Z,18.00
2019-02-17T14:45:08.291Z,18.00
2019-02-17T14:47:38.795Z,18.00
2019-02-17T14:50:10.277Z,18.10
2019-02-17T14:52:39.953Z,18.10
2019-02-17T14:55:11.666Z,18.10
2019-02-17T14:57:41.333Z,18.10
2019-02-17T15:00:16.668Z,18.10
2019-02-17T15:02:46.341Z,18.10
2019-02-17T15:05:16.234Z,18.00
2019-02-17T15:07:46.007Z,18.00
2019-02-17T15:10:15.974Z,17.90
2019-02-17T15:12:45.809Z,17.90
2019-02-17T15:15:19.058Z,17.80
2019-02-17T15:17:50.409Z,17.90
2019-02-17T15:20:26.593Z,17.90
2019-02-17T15:22:56.326Z,17.80
2019-02-17T15:25:26.008Z,17.80
2019-02-17T15:27:55.760Z,17.90
2019-02-17T15:30:25.451Z,18.50
2019-02-17T15:33:03.550Z,19.20
2019-02-17T15:35:26.542Z,19.30
2019-02-17T15:37:56.682Z,19.30
2019-02-17T15:40:26.422Z,19.20
2019-02-17T15:42:56.130Z,19.20
2019-02-17T15:45:25.810Z,19.90
2019-02-17T15:47:55.490Z,20.30
2019-02-17T15:50:25.201Z,21.20
2019-02-17T15:52:56.437Z,21.90
2019-02-17T15:55:26.211Z,22.80
2019-02-17T15:57:57.544Z,23.60
2019-02-17T16:00:27.463Z,23.90
2019-02-17T16:02:57.214Z,23.50
2019-02-17T16:05:26.955Z,22.90
2019-02-17T16:07:56.689Z,22.30
2019-02-17T16:10:28.047Z,21.70
2019-02-17T16:12:58.962Z,21.60
2019-02-17T16:15:28.715Z,21.60
2019-02-17T16:17:58.367Z,21.80
2019-02-17T16:20:28.140Z,21.70
2019-02-17T16:22:57.887Z,21.40
2019-02-17T16:25:27.527Z,21.00
2019-02-17T16:27:57.223Z,20.60
2019-02-17T16:30:27.091Z,20.20
2019-02-17T16:32:57.182Z,19.90
2019-02-17T16:35:27.064Z,19.80
2019-02-17T16:37:56.722Z,19.70
2019-02-17T16:40:26.558Z,19.60
2019-02-17T16:42:57.227Z,19.50
2019-02-17T16:45:27.048Z,19.50
2019-02-17T16:47:57.575Z,19.40
2019-02-17T16:50:33.319Z,19.40
2019-02-17T16:53:04.296Z,19.20
2019-02-17T16:55:33.969Z,19.00
2019-02-17T16:58:03.725Z,18.70
2019-02-17T17:00:33.428Z,18.50
2019-02-17T17:03:03.155Z,18.20
2019-02-17T17:05:32.921Z,17.90
2019-02-17T17:08:02.581Z,17.70
2019-02-17T17:10:32.259Z,17.50
2019-02-17T17:13:01.966Z,17.20
2019-02-17T17:15:31.698Z,17.10
2019-02-17T17:18:01.578Z,16.90
2019-02-17T17:20:50.552Z,16.70
2019-02-17T17:23:20.409Z,16.60
2019-02-17T17:25:50.404Z,16.50
2019-02-17T17:28:20.416Z,16.40
2019-02-17T17:30:50.077Z,16.30
2019-02-17T17:33:19.833Z,16.20
2019-02-17T17:35:49.602Z,16.20
2019-02-17T17:38:19.320Z,16.20
2019-02-17T17:40:49.053Z,16.20
2019-02-17T17:43:18.753Z,16.10
2019-02-17T17:45:48.503Z,16.10
2019-02-17T17:48:18.294Z,16.10
2019-02-17T17:50:48.033Z,16.00
2019-02-17T17:53:17.890Z,15.90
2019-02-17T17:55:49.148Z,15.90
2019-02-17T17:58:18.960Z,15.90
2019-02-17T18:00:48.708Z,15.80
2019-02-17T18:03:18.390Z,15.70
2019-02-17T18:05:48.093Z,15.60
2019-02-17T18:08:17.857Z,15.60
2019-02-17T18:10:47.536Z,15.50
2019-02-17T18:13:18.890Z,15.40
2019-02-17T18:15:48.556Z,15.40
2019-02-17T18:18:18.238Z,15.30
2019-02-17T18:21:07.112Z,15.20
2019-02-17T18:23:36.784Z,15.10
2019-02-17T18:26:06.778Z,15.00
2019-02-17T18:28:37.265Z,14.90
2019-02-17T18:31:07.068Z,14.80
2019-02-17T18:33:38.928Z,14.70
2019-02-17T18:36:27.783Z,14.60
2019-02-17T18:38:57.536Z,14.60
2019-02-17T18:41:27.308Z,14.50
2019-02-17T18:43:57.811Z,14.40
2019-02-17T18:46:27.480Z,14.40
2019-02-17T18:48:58.383Z,14.30
2019-02-17T18:51:28.155Z,14.20
2019-02-17T18:53:57.954Z,14.20
2019-02-17T18:56:27.618Z,14.20
2019-02-17T18:58:57.396Z,14.10
2019-02-17T19:01:27.068Z,14.00
2019-02-17T19:03:56.799Z,14.00
2019-02-17T19:06:26.502Z,14.00
2019-02-17T19:08:57.475Z,13.90
2019-02-17T19:11:27.138Z,13.90
2019-02-17T19:14:16.106Z,13.80
2019-02-17T19:16:45.838Z,13.80
2019-02-17T19:19:15.592Z,13.70
2019-02-17T19:21:45.375Z,13.70
2019-02-17T19:24:15.046Z,13.60
2019-02-17T19:26:44.786Z,13.60
2019-02-17T19:29:16.471Z,13.60
2019-02-17T19:31:46.136Z,13.50
2019-02-17T19:34:16.041Z,13.50
2019-02-17T19:36:46.059Z,13.50
2019-02-17T19:39:18.520Z,13.50
2019-02-17T19:41:51.546Z,13.50
2019-02-17T19:44:21.248Z,13.50
2019-02-17T19:46:51.134Z,13.50
2019-02-17T19:49:20.848Z,13.50
2019-02-17T19:51:50.522Z,13.40
2019-02-17T19:54:20.278Z,13.40
2019-02-17T19:56:50.018Z,13.40
2019-02-17T19:59:19.721Z,13.30
2019-02-17T20:01:50.341Z,13.30
2019-02-17T20:04:21.657Z,13.30
2019-02-17T20:06:52.869Z,13.20
2019-02-17T20:09:22.533Z,13.20
2019-02-17T20:11:52.496Z,13.20
2019-02-17T20:14:23.742Z,13.10
2019-02-17T20:16:53.672Z,13.10
2019-02-17T20:19:25.619Z,13.10
2019-02-17T20:21:55.299Z,13.00
2019-02-17T20:24:24.982Z,13.00
2019-02-17T20:26:54.653Z,13.00
2019-02-17T20:29:24.361Z,12.90
2019-02-17T20:31:54.112Z,12.90
2019-02-17T20:34:23.812Z,12.90
2019-02-17T20:36:53.644Z,12.80
2019-02-17T20:39:23.378Z,12.80
2019-02-17T20:41:53.079Z,12.80
2019-02-17T20:44:22.765Z,12.80
2019-02-17T20:46:52.444Z,12.70
2019-02-17T20:49:22.113Z,12.70
2019-02-17T20:51:51.887Z,12.70
2019-02-17T20:54:21.699Z,12.70
2019-02-17T20:56:51.368Z,12.60
2019-02-17T20:59:21.470Z,12.60
2019-02-17T21:01:51.144Z,12.60
2019-02-17T21:04:20.914Z,12.60
2019-02-17T21:06:50.674Z,12.50
2019-02-17T21:09:20.411Z,12.50
2019-02-17T21:11:55.546Z,12.50
2019-02-17T21:14:44.562Z,12.50
2019-02-17T21:17:14.243Z,12.40
2019-02-17T21:19:44.396Z,12.40
2019-02-17T21:22:14.353Z,12.40
2019-02-17T21:24:44.486Z,12.40
2019-02-17T21:27:14.971Z,12.40
2019-02-17T21:29:44.763Z,12.40
2019-02-17T21:32:14.438Z,12.40
2019-02-17T21:34:44.118Z,12.40
2019-02-17T21:37:13.813Z,12.50
2019-02-17T21:39:43.495Z,12.50
2019-02-17T21:42:13.188Z,12.60
2019-02-17T21:44:42.874Z,12.60
2019-02-17T21:47:12.597Z,12.60
2019-02-17T21:49:43.765Z,12.70
2019-02-17T21:52:13.441Z,12.70
2019-02-17T21:55:02.454Z,12.70
2019-02-17T21:57:32.139Z,12.70
2019-02-17T22:00:01.810Z,12.70
2019-02-17T22:02:31.471Z,12.80
2019-02-17T22:05:01.264Z,12.80
2019-02-17T22:07:31.270Z,12.80
2019-02-17T22:10:01.291Z,12.80
2019-02-17T22:12:31.114Z,12.80
2019-02-17T22:15:03.116Z,12.80
2019-02-17T22:17:32.785Z,12.80
2019-02-17T22:20:02.490Z,12.80
2019-02-17T22:22:32.151Z,12.80
2019-02-17T22:25:01.852Z,12.70
2019-02-17T22:27:31.546Z,12.70
2019-02-17T22:30:01.232Z,12.60
2019-02-17T22:32:32.435Z,12.60
2019-02-17T22:35:02.150Z,12.50
2019-02-17T22:37:32.320Z,12.50
2019-02-17T22:40:03.690Z,12.50
2019-02-17T22:42:33.378Z,12.40
2019-02-17T22:45:05.766Z,12.40
2019-02-17T22:47:35.435Z,12.30
2019-02-17T22:50:08.506Z,12.30
2019-02-17T22:52:38.220Z,12.20
2019-02-17T22:55:13.478Z,12.20
2019-02-17T22:57:45.458Z,12.20
2019-02-17T23:00:47.768Z,12.10
2019-02-17T23:03:17.590Z,12.10
2019-02-17T23:05:47.649Z,12.00
2019-02-17T23:08:17.347Z,12.00
2019-02-17T23:10:48.720Z,12.00
2019-02-17T23:13:18.467Z,12.00
2019-02-17T23:15:49.419Z,11.90
2019-02-17T23:18:19.120Z,11.90
2019-02-17T23:20:48.788Z,11.90
2019-02-17T23:23:18.796Z,11.90
2019-02-17T23:25:48.335Z,11.80
2019-02-17T23:28:18.086Z,11.80
2019-02-17T23:30:47.750Z,11.80
2019-02-17T23:33:17.459Z,11.80
2019-02-17T23:35:47.204Z,11.80
2019-02-17T23:38:16.880Z,11.70
2019-02-17T23:40:46.582Z,11.70
2019-02-17T23:43:17.753Z,11.70
2019-02-17T23:45:47.492Z,11.70
2019-02-17T23:48:17.852Z,11.70
2019-02-17T23:50:47.583Z,11.70
2019-02-17T23:53:18.719Z,11.60
2019-02-17T23:55:49.876Z,11.60
2019-02-17T23:58:19.642Z,11.60
